sensor_id;sensor_type;location;lat;lon;timestamp;P1;P2;P0
72031;PMS5003;49185;42.320;23.198;2024-01-16T00:02:07;2774.67;2774.67;2774.67
72031;PMS5003;49185;42.320;23.198;2024-01-16T00:04:33;2777.33;2777.33;2777.33
72031;PMS5003;49185;42.320;23.198;2024-01-16T00:06:58;2766.33;2766.33;2766.33
72031;PMS5003;49185;42.320;23.198;2024-01-16T00:09:23;2766.33;2766.33;2766.33
72031;PMS5003;49185;42.320;23.198;2024-01-16T00:11:49;2779.67;2779.67;2779.67
72031;PMS5003;49185;42.320;23.198;2024-01-16T00:14:14;2781.67;2781.67;2781.67
72031;PMS5003;49185;42.320;23.198;2024-01-16T00:16:43;2766.33;2766.33;2766.33
72031;PMS5003;49185;42.320;23.198;2024-01-16T00:19:12;2781.00;2781.00;2781.00
72031;PMS5003;49185;42.320;23.198;2024-01-16T00:21:41;2784.50;2784.50;2784.50
72031;PMS5003;49185;42.320;23.198;2024-01-16T00:24:08;2794.00;2794.00;2794.00
72031;PMS5003;49185;42.320;23.198;2024-01-16T00:26:33;2795.67;2795.67;2795.67
72031;PMS5003;49185;42.320;23.198;2024-01-16T00:28:59;2797.00;2797.00;2797.00
72031;PMS5003;49185;42.320;23.198;2024-01-16T00:31:24;2800.67;2800.67;2800.67
72031;PMS5003;49185;42.320;23.198;2024-01-16T00:33:50;2781.67;2781.67;2781.67
72031;PMS5003;49185;42.320;23.198;2024-01-16T00:36:15;2793.00;2793.00;2793.00
72031;PMS5003;49185;42.320;23.198;2024-01-16T00:38:40;2800.67;2800.67;2800.67
72031;PMS5003;49185;42.320;23.198;2024-01-16T00:41:06;2800.67;2800.67;2800.67
72031;PMS5003;49185;42.320;23.198;2024-01-16T00:43:31;2800.67;2800.67;2800.67
72031;PMS5003;49185;42.320;23.198;2024-01-16T00:45:57;2789.67;2789.67;2789.67
72031;PMS5003;49185;42.320;23.198;2024-01-16T00:48:22;2808.00;2808.00;2808.00
72031;PMS5003;49185;42.320;23.198;2024-01-16T00:50:48;2809.33;2809.33;2809.33
72031;PMS5003;49185;42.320;23.198;2024-01-16T00:53:13;2799.67;2799.67;2799.67
72031;PMS5003;49185;42.320;23.198;2024-01-16T00:55:38;2799.67;2799.67;2799.67
72031;PMS5003;49185;42.320;23.198;2024-01-16T00:58:04;2820.50;2820.50;2820.50
72031;PMS5003;49185;42.320;23.198;2024-01-16T01:00:30;2812.00;2812.00;2812.00
72031;PMS5003;49185;42.320;23.198;2024-01-16T01:02:55;2793.00;2793.00;2793.00
72031;PMS5003;49185;42.320;23.198;2024-01-16T01:05:20;2812.00;2812.00;2812.00
72031;PMS5003;49185;42.320;23.198;2024-01-16T01:07:46;2816.00;2816.00;2816.00
72031;PMS5003;49185;42.320;23.198;2024-01-16T01:10:11;2808.00;2808.00;2808.00
72031;PMS5003;49185;42.320;23.198;2024-01-16T01:12:36;2820.00;2820.00;2820.00
72031;PMS5003;49185;42.320;23.198;2024-01-16T01:15:02;2831.00;2831.00;2831.00
72031;PMS5003;49185;42.320;23.198;2024-01-16T01:17:27;2822.67;2822.67;2822.67
72031;PMS5003;49185;42.320;23.198;2024-01-16T01:19:53;2822.67;2822.67;2822.67
72031;PMS5003;49185;42.320;23.198;2024-01-16T01:22:18;2803.33;2803.33;2803.33
72031;PMS5003;49185;42.320;23.198;2024-01-16T01:24:43;2837.67;2837.67;2837.67
72031;PMS5003;49185;42.320;23.198;2024-01-16T01:27:09;2835.00;2835.00;2835.00
72031;PMS5003;49185;42.320;23.198;2024-01-16T01:29:34;2822.67;2822.67;2822.67
72031;PMS5003;49185;42.320;23.198;2024-01-16T01:32:00;2827.00;2827.00;2827.00
72031;PMS5003;49185;42.320;23.198;2024-01-16T01:34:25;2823.67;2823.67;2823.67
72031;PMS5003;49185;42.320;23.198;2024-01-16T01:36:50;2808.00;2808.00;2808.00
72031;PMS5003;49185;42.320;23.198;2024-01-16T01:39:16;2806.67;2806.67;2806.67
72031;PMS5003;49185;42.320;23.198;2024-01-16T01:41:41;2827.00;2827.00;2827.00
72031;PMS5003;49185;42.320;23.198;2024-01-16T01:44:06;2831.00;2831.00;2831.00
72031;PMS5003;49185;42.320;23.198;2024-01-16T01:46:32;2835.00;2835.00;2835.00
72031;PMS5003;49185;42.320;23.198;2024-01-16T01:48:58;2837.50;2837.50;2837.50
72031;PMS5003;49185;42.320;23.198;2024-01-16T01:51:24;2812.00;2812.00;2812.00
72031;PMS5003;49185;42.320;23.198;2024-01-16T01:53:49;2795.67;2795.67;2795.67
72031;PMS5003;49185;42.320;23.198;2024-01-16T01:56:19;2816.50;2816.50;2816.50
72031;PMS5003;49185;42.320;23.198;2024-01-16T01:58:47;2811.00;2811.00;2811.00
72031;PMS5003;49185;42.320;23.198;2024-01-16T02:01:15;2810.50;2810.50;2810.50
72031;PMS5003;49185;42.320;23.198;2024-01-16T02:03:44;2790.00;2790.00;2790.00
72031;PMS5003;49185;42.320;23.198;2024-01-16T02:06:11;2794.00;2794.00;2794.00
72031;PMS5003;49185;42.320;23.198;2024-01-16T02:08:37;2797.50;2797.50;2797.50
72031;PMS5003;49185;42.320;23.198;2024-01-16T02:11:03;2820.50;2820.50;2820.50
72031;PMS5003;49185;42.320;23.198;2024-01-16T02:13:29;2816.00;2816.00;2816.00
72031;PMS5003;49185;42.320;23.198;2024-01-16T02:15:54;2814.67;2814.67;2814.67
72031;PMS5003;49185;42.320;23.198;2024-01-16T02:18:19;2818.67;2818.67;2818.67
72031;PMS5003;49185;42.320;23.198;2024-01-16T02:20:45;2816.00;2816.00;2816.00
72031;PMS5003;49185;42.320;23.198;2024-01-16T02:23:12;2803.00;2803.00;2803.00
72031;PMS5003;49185;42.320;23.198;2024-01-16T02:25:42;2794.00;2794.00;2794.00
72031;PMS5003;49185;42.320;23.198;2024-01-16T02:28:08;2801.50;2801.50;2801.50
72031;PMS5003;49185;42.320;23.198;2024-01-16T02:30:34;2799.67;2799.67;2799.67
72031;PMS5003;49185;42.320;23.198;2024-01-16T02:32:59;2803.33;2803.33;2803.33
72031;PMS5003;49185;42.320;23.198;2024-01-16T02:35:24;2825.67;2825.67;2825.67
72031;PMS5003;49185;42.320;23.198;2024-01-16T02:37:50;2795.67;2795.67;2795.67
72031;PMS5003;49185;42.320;23.198;2024-01-16T02:40:15;2816.00;2816.00;2816.00
72031;PMS5003;49185;42.320;23.198;2024-01-16T02:42:41;2804.67;2804.67;2804.67
72031;PMS5003;49185;42.320;23.198;2024-01-16T02:45:07;2804.67;2804.67;2804.67
72031;PMS5003;49185;42.320;23.198;2024-01-16T02:47:32;2809.00;2809.00;2809.00
72031;PMS5003;49185;42.320;23.198;2024-01-16T02:49:59;2824.50;2824.50;2824.50
72031;PMS5003;49185;42.320;23.198;2024-01-16T02:52:24;2818.50;2818.50;2818.50
72031;PMS5003;49185;42.320;23.198;2024-01-16T02:54:50;2835.00;2835.00;2835.00
72031;PMS5003;49185;42.320;23.198;2024-01-16T02:57:15;2800.67;2800.67;2800.67
72031;PMS5003;49185;42.320;23.198;2024-01-16T02:59:44;2827.00;2827.00;2827.00
72031;PMS5003;49185;42.320;23.198;2024-01-16T03:02:09;2831.50;2831.50;2831.50
72031;PMS5003;49185;42.320;23.198;2024-01-16T03:04:35;2831.00;2831.00;2831.00
72031;PMS5003;49185;42.320;23.198;2024-01-16T03:07:00;2831.00;2831.00;2831.00
72031;PMS5003;49185;42.320;23.198;2024-01-16T03:09:26;2839.00;2839.00;2839.00
72031;PMS5003;49185;42.320;23.198;2024-01-16T03:11:51;2827.00;2827.00;2827.00
72031;PMS5003;49185;42.320;23.198;2024-01-16T03:14:16;2821.00;2821.00;2821.00
72031;PMS5003;49185;42.320;23.198;2024-01-16T03:16:42;2812.00;2812.00;2812.00
72031;PMS5003;49185;42.320;23.198;2024-01-16T03:19:07;2822.67;2822.67;2822.67
72031;PMS5003;49185;42.320;23.198;2024-01-16T03:21:32;2843.00;2843.00;2843.00
72031;PMS5003;49185;42.320;23.198;2024-01-16T03:23:58;2843.00;2843.00;2843.00
72031;PMS5003;49185;42.320;23.198;2024-01-16T03:26:23;2837.67;2837.67;2837.67
72031;PMS5003;49185;42.320;23.198;2024-01-16T03:28:48;2829.67;2829.67;2829.67
72031;PMS5003;49185;42.320;23.198;2024-01-16T03:31:14;2823.67;2823.67;2823.67
72031;PMS5003;49185;42.320;23.198;2024-01-16T03:33:39;2795.67;2795.67;2795.67
72031;PMS5003;49185;42.320;23.198;2024-01-16T03:36:05;2820.00;2820.00;2820.00
72031;PMS5003;49185;42.320;23.198;2024-01-16T03:38:30;2804.67;2804.67;2804.67
72031;PMS5003;49185;42.320;23.198;2024-01-16T03:41:14;2805.00;2805.00;2805.00
72031;PMS5003;49185;42.320;23.198;2024-01-16T03:43:58;2801.50;2801.50;2801.50
72031;PMS5003;49185;42.320;23.198;2024-01-16T03:46:42;2814.50;2814.50;2814.50
72031;PMS5003;49185;42.320;23.198;2024-01-16T03:49:26;2797.50;2797.50;2797.50
72031;PMS5003;49185;42.320;23.198;2024-01-16T03:52:10;2812.50;2812.50;2812.50
72031;PMS5003;49185;42.320;23.198;2024-01-16T03:54:54;2801.50;2801.50;2801.50
72031;PMS5003;49185;42.320;23.198;2024-01-16T03:57:38;2796.00;2796.00;2796.00
72031;PMS5003;49185;42.320;23.198;2024-01-16T04:00:22;2814.50;2814.50;2814.50
72031;PMS5003;49185;42.320;23.198;2024-01-16T04:03:06;2812.50;2812.50;2812.50
72031;PMS5003;49185;42.320;23.198;2024-01-16T04:05:50;2809.00;2809.00;2809.00
72031;PMS5003;49185;42.320;23.198;2024-01-16T04:08:34;2796.00;2796.00;2796.00
72031;PMS5003;49185;42.320;23.198;2024-01-16T04:11:18;2820.50;2820.50;2820.50
72031;PMS5003;49185;42.320;23.198;2024-01-16T04:14:02;2824.50;2824.50;2824.50
72031;PMS5003;49185;42.320;23.198;2024-01-16T04:16:46;2799.50;2799.50;2799.50
72031;PMS5003;49185;42.320;23.198;2024-01-16T04:19:29;2799.50;2799.50;2799.50
72031;PMS5003;49185;42.320;23.198;2024-01-16T04:22:13;2809.00;2809.00;2809.00
72031;PMS5003;49185;42.320;23.198;2024-01-16T04:24:57;2803.00;2803.00;2803.00
72031;PMS5003;49185;42.320;23.198;2024-01-16T04:27:41;2797.50;2797.50;2797.50
72031;PMS5003;49185;42.320;23.198;2024-01-16T04:30:25;2795.50;2795.50;2795.50
72031;PMS5003;49185;42.320;23.198;2024-01-16T04:33:09;2809.00;2809.00;2809.00
72031;PMS5003;49185;42.320;23.198;2024-01-16T04:35:53;2795.50;2795.50;2795.50
72031;PMS5003;49185;42.320;23.198;2024-01-16T04:38:37;2803.50;2803.50;2803.50
72031;PMS5003;49185;42.320;23.198;2024-01-16T04:41:21;2812.50;2812.50;2812.50
72031;PMS5003;49185;42.320;23.198;2024-01-16T04:44:05;2801.50;2801.50;2801.50
72031;PMS5003;49185;42.320;23.198;2024-01-16T04:46:49;2814.50;2814.50;2814.50
72031;PMS5003;49185;42.320;23.198;2024-01-16T04:49:33;2816.50;2816.50;2816.50
72031;PMS5003;49185;42.320;23.198;2024-01-16T04:52:16;2814.50;2814.50;2814.50
72031;PMS5003;49185;42.320;23.198;2024-01-16T04:55:00;2807.00;2807.00;2807.00
72031;PMS5003;49185;42.320;23.198;2024-01-16T04:57:44;2816.50;2816.50;2816.50
72031;PMS5003;49185;42.320;23.198;2024-01-16T05:00:28;2812.50;2812.50;2812.50
72031;PMS5003;49185;42.320;23.198;2024-01-16T05:03:12;2812.50;2812.50;2812.50
72031;PMS5003;49185;42.320;23.198;2024-01-16T05:05:56;2795.50;2795.50;2795.50
72031;PMS5003;49185;42.320;23.198;2024-01-16T05:08:40;2816.50;2816.50;2816.50
72031;PMS5003;49185;42.320;23.198;2024-01-16T05:11:06;2826.50;2826.50;2826.50
72031;PMS5003;49185;42.320;23.198;2024-01-16T05:13:32;2816.00;2816.00;2816.00
72031;PMS5003;49185;42.320;23.198;2024-01-16T05:15:57;2795.67;2795.67;2795.67
72031;PMS5003;49185;42.320;23.198;2024-01-16T05:18:22;2820.00;2820.00;2820.00
72031;PMS5003;49185;42.320;23.198;2024-01-16T05:20:48;2823.67;2823.67;2823.67
72031;PMS5003;49185;42.320;23.198;2024-01-16T05:23:13;2816.00;2816.00;2816.00
72031;PMS5003;49185;42.320;23.198;2024-01-16T05:25:39;2800.67;2800.67;2800.67
72031;PMS5003;49185;42.320;23.198;2024-01-16T05:28:04;2820.00;2820.00;2820.00
72031;PMS5003;49185;42.320;23.198;2024-01-16T05:30:29;2820.00;2820.00;2820.00
72031;PMS5003;49185;42.320;23.198;2024-01-16T05:32:55;2808.00;2808.00;2808.00
72031;PMS5003;49185;42.320;23.198;2024-01-16T05:35:20;2820.00;2820.00;2820.00
72031;PMS5003;49185;42.320;23.198;2024-01-16T05:37:46;2818.67;2818.67;2818.67
72031;PMS5003;49185;42.320;23.198;2024-01-16T05:40:11;2795.67;2795.67;2795.67
72031;PMS5003;49185;42.320;23.198;2024-01-16T05:42:37;2793.00;2793.00;2793.00
72031;PMS5003;49185;42.320;23.198;2024-01-16T05:45:03;2797.50;2797.50;2797.50
72031;PMS5003;49185;42.320;23.198;2024-01-16T05:47:29;2829.50;2829.50;2829.50
72031;PMS5003;49185;42.320;23.198;2024-01-16T05:49:54;2825.67;2825.67;2825.67
72031;PMS5003;49185;42.320;23.198;2024-01-16T05:52:20;2818.67;2818.67;2818.67
72031;PMS5003;49185;42.320;23.198;2024-01-16T05:54:45;2816.00;2816.00;2816.00
72031;PMS5003;49185;42.320;23.198;2024-01-16T05:57:10;2818.67;2818.67;2818.67
72031;PMS5003;49185;42.320;23.198;2024-01-16T05:59:36;2816.00;2816.00;2816.00
72031;PMS5003;49185;42.320;23.198;2024-01-16T06:02:01;2806.00;2806.00;2806.00
72031;PMS5003;49185;42.320;23.198;2024-01-16T06:04:26;2812.00;2812.00;2812.00
72031;PMS5003;49185;42.320;23.198;2024-01-16T06:06:52;2808.00;2808.00;2808.00
72031;PMS5003;49185;42.320;23.198;2024-01-16T06:09:17;2799.33;2799.33;2799.33
72031;PMS5003;49185;42.320;23.198;2024-01-16T06:11:43;2800.67;2800.67;2800.67
72031;PMS5003;49185;42.320;23.198;2024-01-16T06:14:08;2780.67;2780.67;2780.67
72031;PMS5003;49185;42.320;23.198;2024-01-16T06:16:34;2787.00;2787.00;2787.00
72031;PMS5003;49185;42.320;23.198;2024-01-16T06:18:59;2793.00;2793.00;2793.00
72031;PMS5003;49185;42.320;23.198;2024-01-16T06:21:24;2804.67;2804.67;2804.67
72031;PMS5003;49185;42.320;23.198;2024-01-16T06:23:50;2804.67;2804.67;2804.67
72031;PMS5003;49185;42.320;23.198;2024-01-16T06:26:15;2804.67;2804.67;2804.67
72031;PMS5003;49185;42.320;23.198;2024-01-16T06:28:41;2788.33;2788.33;2788.33
72031;PMS5003;49185;42.320;23.198;2024-01-16T06:31:06;2803.33;2803.33;2803.33
72031;PMS5003;49185;42.320;23.198;2024-01-16T06:33:32;2799.67;2799.67;2799.67
72031;PMS5003;49185;42.320;23.198;2024-01-16T06:35:57;2797.00;2797.00;2797.00
72031;PMS5003;49185;42.320;23.198;2024-01-16T06:38:22;2794.33;2794.33;2794.33
72031;PMS5003;49185;42.320;23.198;2024-01-16T06:40:48;2800.67;2800.67;2800.67
72031;PMS5003;49185;42.320;23.198;2024-01-16T06:43:14;2797.00;2797.00;2797.00
72031;PMS5003;49185;42.320;23.198;2024-01-16T06:45:40;2792.00;2792.00;2792.00
72031;PMS5003;49185;42.320;23.198;2024-01-16T06:48:05;2769.33;2769.33;2769.33
72031;PMS5003;49185;42.320;23.198;2024-01-16T06:50:31;2778.67;2778.67;2778.67
72031;PMS5003;49185;42.320;23.198;2024-01-16T06:52:56;2778.67;2778.67;2778.67
72031;PMS5003;49185;42.320;23.198;2024-01-16T06:55:21;2755.33;2755.33;2755.33
72031;PMS5003;49185;42.320;23.198;2024-01-16T06:57:47;2762.33;2762.33;2762.33
72031;PMS5003;49185;42.320;23.198;2024-01-16T07:00:13;2773.33;2773.33;2773.33
72031;PMS5003;49185;42.320;23.198;2024-01-16T07:02:39;2775.00;2775.00;2775.00
72031;PMS5003;49185;42.320;23.198;2024-01-16T07:05:04;2774.67;2774.67;2774.67
72031;PMS5003;49185;42.320;23.198;2024-01-16T07:07:30;2757.67;2757.67;2757.67
72031;PMS5003;49185;42.320;23.198;2024-01-16T07:09:55;2770.67;2770.67;2770.67
72031;PMS5003;49185;42.320;23.198;2024-01-16T07:12:21;2743.00;2743.00;2743.00
72031;PMS5003;49185;42.320;23.198;2024-01-16T07:14:46;2756.33;2756.33;2756.33
72031;PMS5003;49185;42.320;23.198;2024-01-16T07:17:11;2733.33;2733.33;2733.33
72031;PMS5003;49185;42.320;23.198;2024-01-16T07:19:37;2759.67;2759.67;2759.67
72031;PMS5003;49185;42.320;23.198;2024-01-16T07:22:02;2756.33;2756.33;2756.33
72031;PMS5003;49185;42.320;23.198;2024-01-16T07:24:27;2752.67;2752.67;2752.67
72031;PMS5003;49185;42.320;23.198;2024-01-16T07:26:53;2752.67;2752.67;2752.67
72031;PMS5003;49185;42.320;23.198;2024-01-16T07:29:18;2748.67;2748.67;2748.67
72031;PMS5003;49185;42.320;23.198;2024-01-16T07:31:44;2733.33;2733.33;2733.33
72031;PMS5003;49185;42.320;23.198;2024-01-16T07:34:09;2744.33;2744.33;2744.33
72031;PMS5003;49185;42.320;23.198;2024-01-16T07:36:35;2714.00;2714.00;2714.00
72031;PMS5003;49185;42.320;23.198;2024-01-16T07:39:00;2738.33;2738.33;2738.33
72031;PMS5003;49185;42.320;23.198;2024-01-16T07:41:26;2723.33;2723.33;2723.33
72031;PMS5003;49185;42.320;23.198;2024-01-16T07:43:51;2738.33;2738.33;2738.33
72031;PMS5003;49185;42.320;23.198;2024-01-16T07:46:16;2739.67;2739.67;2739.67
72031;PMS5003;49185;42.320;23.198;2024-01-16T07:49:00;2742.50;2742.50;2742.50
72031;PMS5003;49185;42.320;23.198;2024-01-16T07:51:26;2731.50;2731.50;2731.50
72031;PMS5003;49185;42.320;23.198;2024-01-16T07:53:57;2733.33;2733.33;2733.33
72031;PMS5003;49185;42.320;23.198;2024-01-16T07:56:30;2748.00;2748.00;2748.00
72031;PMS5003;49185;42.320;23.198;2024-01-16T07:58:56;2745.33;2745.33;2745.33
72031;PMS5003;49185;42.320;23.198;2024-01-16T08:01:21;2745.33;2745.33;2745.33
72031;PMS5003;49185;42.320;23.198;2024-01-16T08:03:46;2731.33;2731.33;2731.33
72031;PMS5003;49185;42.320;23.198;2024-01-16T08:06:13;2719.00;2719.00;2719.00
72031;PMS5003;49185;42.320;23.198;2024-01-16T08:08:38;2740.50;2740.50;2740.50
72031;PMS5003;49185;42.320;23.198;2024-01-16T08:11:04;2727.33;2727.33;2727.33
72031;PMS5003;49185;42.320;23.198;2024-01-16T08:13:29;2734.33;2734.33;2734.33
72031;PMS5003;49185;42.320;23.198;2024-01-16T08:15:54;2716.33;2716.33;2716.33
72031;PMS5003;49185;42.320;23.198;2024-01-16T08:18:20;2727.33;2727.33;2727.33
72031;PMS5003;49185;42.320;23.198;2024-01-16T08:20:45;2719.00;2719.00;2719.00
72031;PMS5003;49185;42.320;23.198;2024-01-16T08:23:11;2731.33;2731.33;2731.33
72031;PMS5003;49185;42.320;23.198;2024-01-16T08:25:36;2719.00;2719.00;2719.00
72031;PMS5003;49185;42.320;23.198;2024-01-16T08:28:01;2731.33;2731.33;2731.33
72031;PMS5003;49185;42.320;23.198;2024-01-16T08:30:27;2716.33;2716.33;2716.33
72031;PMS5003;49185;42.320;23.198;2024-01-16T08:32:52;2730.00;2730.00;2730.00
72031;PMS5003;49185;42.320;23.198;2024-01-16T08:35:18;2730.00;2730.00;2730.00
72031;PMS5003;49185;42.320;23.198;2024-01-16T08:37:43;2713.33;2713.33;2713.33
72031;PMS5003;49185;42.320;23.198;2024-01-16T08:40:09;2726.00;2726.00;2726.00
72031;PMS5003;49185;42.320;23.198;2024-01-16T08:42:34;2712.00;2712.00;2712.00
72031;PMS5003;49185;42.320;23.198;2024-01-16T08:45:00;2709.33;2709.33;2709.33
72031;PMS5003;49185;42.320;23.198;2024-01-16T08:47:25;2708.33;2708.33;2708.33
72031;PMS5003;49185;42.320;23.198;2024-01-16T08:49:51;2702.33;2702.33;2702.33
72031;PMS5003;49185;42.320;23.198;2024-01-16T08:52:16;2698.00;2698.00;2698.00
72031;PMS5003;49185;42.320;23.198;2024-01-16T08:54:41;2691.00;2691.00;2691.00
72031;PMS5003;49185;42.320;23.198;2024-01-16T08:57:07;2682.00;2682.00;2682.00
72031;PMS5003;49185;42.320;23.198;2024-01-16T08:59:32;2692.00;2692.00;2692.00
72031;PMS5003;49185;42.320;23.198;2024-01-16T09:01:58;2678.00;2678.00;2678.00
72031;PMS5003;49185;42.320;23.198;2024-01-16T09:04:23;2675.00;2675.00;2675.00
72031;PMS5003;49185;42.320;23.198;2024-01-16T09:06:48;2671.00;2671.00;2671.00
72031;PMS5003;49185;42.320;23.198;2024-01-16T09:09:14;2670.00;2670.00;2670.00
72031;PMS5003;49185;42.320;23.198;2024-01-16T09:11:39;2688.33;2688.33;2688.33
72031;PMS5003;49185;42.320;23.198;2024-01-16T09:14:04;2692.00;2692.00;2692.00
72031;PMS5003;49185;42.320;23.198;2024-01-16T09:16:30;2685.00;2685.00;2685.00
72031;PMS5003;49185;42.320;23.198;2024-01-16T09:18:55;2687.00;2687.00;2687.00
72031;PMS5003;49185;42.320;23.198;2024-01-16T09:21:21;2691.00;2691.00;2691.00
72031;PMS5003;49185;42.320;23.198;2024-01-16T09:23:46;2706.33;2706.33;2706.33
72031;PMS5003;49185;42.320;23.198;2024-01-16T09:26:12;2713.33;2713.33;2713.33
72031;PMS5003;49185;42.320;23.198;2024-01-16T09:28:37;2720.33;2720.33;2720.33
72031;PMS5003;49185;42.320;23.198;2024-01-16T09:31:02;2727.33;2727.33;2727.33
72031;PMS5003;49185;42.320;23.198;2024-01-16T09:33:28;2727.33;2727.33;2727.33
72031;PMS5003;49185;42.320;23.198;2024-01-16T09:35:53;2738.33;2738.33;2738.33
72031;PMS5003;49185;42.320;23.198;2024-01-16T09:38:19;2731.33;2731.33;2731.33
72031;PMS5003;49185;42.320;23.198;2024-01-16T09:40:44;2738.33;2738.33;2738.33
72031;PMS5003;49185;42.320;23.198;2024-01-16T09:43:10;2759.67;2759.67;2759.67
72031;PMS5003;49185;42.320;23.198;2024-01-16T09:45:37;2766.00;2766.00;2766.00
72031;PMS5003;49185;42.320;23.198;2024-01-16T09:48:03;2737.00;2737.00;2737.00
72031;PMS5003;49185;42.320;23.198;2024-01-16T09:50:30;2759.00;2759.00;2759.00
72031;PMS5003;49185;42.320;23.198;2024-01-16T09:52:55;2752.67;2752.67;2752.67
72031;PMS5003;49185;42.320;23.198;2024-01-16T09:55:21;2770.67;2770.67;2770.67
72031;PMS5003;49185;42.320;23.198;2024-01-16T09:57:46;2759.67;2759.67;2759.67
72031;PMS5003;49185;42.320;23.198;2024-01-16T10:00:16;2779.00;2779.00;2779.00
72031;PMS5003;49185;42.320;23.198;2024-01-16T10:02:42;2773.33;2773.33;2773.33
72031;PMS5003;49185;42.320;23.198;2024-01-16T10:05:08;2781.00;2781.00;2781.00
72031;PMS5003;49185;42.320;23.198;2024-01-16T10:07:38;2807.00;2807.00;2807.00
72031;PMS5003;49185;42.320;23.198;2024-01-16T10:10:05;2801.50;2801.50;2801.50
72031;PMS5003;49185;42.320;23.198;2024-01-16T10:12:32;2794.00;2794.00;2794.00
72031;PMS5003;49185;42.320;23.198;2024-01-16T10:14:58;2803.50;2803.50;2803.50
72031;PMS5003;49185;42.320;23.198;2024-01-16T10:17:43;2807.00;2807.00;2807.00
72031;PMS5003;49185;42.320;23.198;2024-01-16T10:20:09;2809.00;2809.00;2809.00
72031;PMS5003;49185;42.320;23.198;2024-01-16T10:22:35;2831.50;2831.50;2831.50
72031;PMS5003;49185;42.320;23.198;2024-01-16T10:27:37;2809.00;2809.00;2809.00
72031;PMS5003;49185;42.320;23.198;2024-01-16T10:30:03;2828.00;2828.00;2828.00
72031;PMS5003;49185;42.320;23.198;2024-01-16T10:32:30;2807.00;2807.00;2807.00
72031;PMS5003;49185;42.320;23.198;2024-01-16T10:35:16;2797.50;2797.50;2797.50
72031;PMS5003;49185;42.320;23.198;2024-01-16T10:42:43;2790.00;2790.00;2790.00
72031;PMS5003;49185;42.320;23.198;2024-01-16T10:45:11;2786.00;2786.00;2786.00
72031;PMS5003;49185;42.320;23.198;2024-01-16T10:47:41;2777.00;2777.00;2777.00
72031;PMS5003;49185;42.320;23.198;2024-01-16T10:50:07;2798.00;2798.00;2798.00
72031;PMS5003;49185;42.320;23.198;2024-01-16T10:52:33;2806.67;2806.67;2806.67
72031;PMS5003;49185;42.320;23.198;2024-01-16T10:54:59;2824.50;2824.50;2824.50
72031;PMS5003;49185;42.320;23.198;2024-01-16T10:57:28;2835.50;2835.50;2835.50
72031;PMS5003;49185;42.320;23.198;2024-01-16T11:00:03;2839.50;2839.50;2839.50
72031;PMS5003;49185;42.320;23.198;2024-01-16T11:02:32;2829.50;2829.50;2829.50
72031;PMS5003;49185;42.320;23.198;2024-01-16T11:05:03;2839.50;2839.50;2839.50
72031;PMS5003;49185;42.320;23.198;2024-01-16T11:07:31;2867.00;2867.00;2867.00
72031;PMS5003;49185;42.320;23.198;2024-01-16T11:09:59;2873.00;2873.00;2873.00
72031;PMS5003;49185;42.320;23.198;2024-01-16T11:12:25;2855.00;2855.00;2855.00
72031;PMS5003;49185;42.320;23.198;2024-01-16T11:14:52;2881.00;2881.00;2881.00
72031;PMS5003;49185;42.320;23.198;2024-01-16T11:17:19;2887.00;2887.00;2887.00
72031;PMS5003;49185;42.320;23.198;2024-01-16T11:19:44;2887.00;2887.00;2887.00
72031;PMS5003;49185;42.320;23.198;2024-01-16T11:22:12;2883.00;2883.00;2883.00
72031;PMS5003;49185;42.320;23.198;2024-01-16T11:24:40;2871.00;2871.00;2871.00
72031;PMS5003;49185;42.320;23.198;2024-01-16T11:27:06;2867.00;2867.00;2867.00
72031;PMS5003;49185;42.320;23.198;2024-01-16T11:31:57;2837.67;2837.67;2837.67
72031;PMS5003;49185;42.320;23.198;2024-01-16T11:37:07;2857.00;2857.00;2857.00
72031;PMS5003;49185;42.320;23.198;2024-01-16T11:39:36;2851.50;2851.50;2851.50
72031;PMS5003;49185;42.320;23.198;2024-01-16T11:42:02;2841.67;2841.67;2841.67
72031;PMS5003;49185;42.320;23.198;2024-01-16T11:47:06;2865.00;2865.00;2865.00
72031;PMS5003;49185;42.320;23.198;2024-01-16T11:49:32;2867.00;2867.00;2867.00
72031;PMS5003;49185;42.320;23.198;2024-01-16T11:51:57;2866.33;2866.33;2866.33
72031;PMS5003;49185;42.320;23.198;2024-01-16T11:54:23;2871.00;2871.00;2871.00
72031;PMS5003;49185;42.320;23.198;2024-01-16T12:00:08;2845.50;2845.50;2845.50
72031;PMS5003;49185;42.320;23.198;2024-01-16T12:05:12;2837.67;2837.67;2837.67
72031;PMS5003;49185;42.320;23.198;2024-01-16T12:07:42;2849.50;2849.50;2849.50
72031;PMS5003;49185;42.320;23.198;2024-01-16T12:10:11;2853.00;2853.00;2853.00
72031;PMS5003;49185;42.320;23.198;2024-01-16T12:12:37;2824.67;2824.67;2824.67
72031;PMS5003;49185;42.320;23.198;2024-01-16T12:15:03;2849.50;2849.50;2849.50
72031;PMS5003;49185;42.320;23.198;2024-01-16T12:17:29;2814.67;2814.67;2814.67
72031;PMS5003;49185;42.320;23.198;2024-01-16T12:19:54;2854.33;2854.33;2854.33
72031;PMS5003;49185;42.320;23.198;2024-01-16T12:22:20;2843.00;2843.00;2843.00
72031;PMS5003;49185;42.320;23.198;2024-01-16T12:24:45;2843.00;2843.00;2843.00
72031;PMS5003;49185;42.320;23.198;2024-01-16T12:27:11;2832.33;2832.33;2832.33
72031;PMS5003;49185;42.320;23.198;2024-01-16T12:29:38;2853.00;2853.00;2853.00
72031;PMS5003;49185;42.320;23.198;2024-01-16T12:34:41;2810.50;2810.50;2810.50
72031;PMS5003;49185;42.320;23.198;2024-01-16T12:37:12;2853.00;2853.00;2853.00
72031;PMS5003;49185;42.320;23.198;2024-01-16T12:39:38;2850.33;2850.33;2850.33
72031;PMS5003;49185;42.320;23.198;2024-01-16T12:42:04;2853.00;2853.00;2853.00
72031;PMS5003;49185;42.320;23.198;2024-01-16T12:44:30;2853.00;2853.00;2853.00
72031;PMS5003;49185;42.320;23.198;2024-01-16T12:46:56;2829.67;2829.67;2829.67
72031;PMS5003;49185;42.320;23.198;2024-01-16T12:49:22;2845.50;2845.50;2845.50
72031;PMS5003;49185;42.320;23.198;2024-01-16T12:51:48;2859.00;2859.00;2859.00
72031;PMS5003;49185;42.320;23.198;2024-01-16T12:54:14;2862.33;2862.33;2862.33
72031;PMS5003;49185;42.320;23.198;2024-01-16T12:56:41;2871.00;2871.00;2871.00
72031;PMS5003;49185;42.320;23.198;2024-01-16T12:59:13;2869.00;2869.00;2869.00